Portada
METAR-TAF:

METAR-TAF

Aeropuertos :

Edremit, Turquía

latitud: 39-33-16N, longitud: 27-00-49E, altitud: 15 m

Observación

El informe se hizo hace 29 minutos, a las 01:50 UTC
Viento 9 kt del este-noreste
Temperatura 28°C
Humedad 51%
Presión 1007 hPa
Visibilidad 10 km o más
sin nubes por debajo de 1500 m y sin presencia de cumulonimbus.

METAR: LTFD 230150Z 07009KT CAVOK 28/17 Q1007

Hora: 05:19 (02:19 UTC)

Pronóstico

El informe se hizo hace 3 horas y 39 minutos, a las 22:40 UTC
Pronóstico válido del 23 a las 00 UTC al 23 a las 09 UTC
Viento 8 kt del este-noreste
Visibilidad 10 km o más
sin nubes por debajo de 1500 m y sin presencia de cumulonimbus.

TAF: LTFD 222240Z 2300/2309 06008KT CAVOK

Observaciones y pronósticos meteorológicos de más de 4000 aeropuertos (mensajes METAR y TAF).

Los puntos amarillos y rojos representan las estaciones disponibles.

Ponga el ratón en el punto deseado para ver el nombre de la estación.

Haga clic para ver las observaciones y los pronósticos meteorológicos.

Para cambiar el mapa : haga clic en los botones verdes con una cruz de color negro para hacer un zoom, en el botón verde con un guión para alejar o en las flechas verdes para mapas adyacentes.


METAR-TAF: